sensor_id;sensor_type;location;lat;lon;timestamp;P1;durP1;ratioP1;P2;durP2;ratioP2
49978;SDS011;35869;50.990;6.962;2023-02-13T00:03:38;15.55;;;9.80;;
49978;SDS011;35869;50.990;6.962;2023-02-13T00:08:38;13.95;;;9.15;;
49978;SDS011;35869;50.990;6.962;2023-02-13T00:13:38;14.93;;;10.18;;
49978;SDS011;35869;50.990;6.962;2023-02-13T00:18:38;13.53;;;9.57;;
49978;SDS011;35869;50.990;6.962;2023-02-13T00:23:39;15.73;;;9.85;;
49978;SDS011;35869;50.990;6.962;2023-02-13T00:28:39;13.45;;;9.07;;
49978;SDS011;35869;50.990;6.962;2023-02-13T00:33:39;15.20;;;8.93;;
49978;SDS011;35869;50.990;6.962;2023-02-13T00:38:40;12.50;;;8.85;;
49978;SDS011;35869;50.990;6.962;2023-02-13T00:48:41;14.37;;;8.87;;
49978;SDS011;35869;50.990;6.962;2023-02-13T00:53:42;12.50;;;9.43;;
49978;SDS011;35869;50.990;6.962;2023-02-13T00:58:43;15.13;;;9.18;;
49978;SDS011;35869;50.990;6.962;2023-02-13T01:03:43;11.03;;;8.40;;
49978;SDS011;35869;50.990;6.962;2023-02-13T01:08:43;14.85;;;8.02;;
49978;SDS011;35869;50.990;6.962;2023-02-13T01:13:44;15.02;;;9.45;;
49978;SDS011;35869;50.990;6.962;2023-02-13T01:18:44;14.07;;;8.13;;
49978;SDS011;35869;50.990;6.962;2023-02-13T01:23:45;13.40;;;8.45;;
49978;SDS011;35869;50.990;6.962;2023-02-13T01:28:45;12.70;;;8.02;;
49978;SDS011;35869;50.990;6.962;2023-02-13T01:33:45;14.20;;;8.37;;
49978;SDS011;35869;50.990;6.962;2023-02-13T01:38:46;13.52;;;9.07;;
49978;SDS011;35869;50.990;6.962;2023-02-13T01:43:56;13.90;;;8.43;;
49978;SDS011;35869;50.990;6.962;2023-02-13T01:49:00;11.82;;;7.80;;
49978;SDS011;35869;50.990;6.962;2023-02-13T01:54:18;12.10;;;8.55;;
49978;SDS011;35869;50.990;6.962;2023-02-13T01:59:27;9.45;;;7.50;;
49978;SDS011;35869;50.990;6.962;2023-02-13T02:04:32;11.05;;;7.78;;
49978;SDS011;35869;50.990;6.962;2023-02-13T02:09:36;9.07;;;7.43;;
49978;SDS011;35869;50.990;6.962;2023-02-13T02:14:39;10.90;;;8.45;;
49978;SDS011;35869;50.990;6.962;2023-02-13T02:24:45;11.45;;;8.40;;
49978;SDS011;35869;50.990;6.962;2023-02-13T02:36:08;10.77;;;8.23;;
49978;SDS011;35869;50.990;6.962;2023-02-13T02:41:09;12.13;;;8.50;;
49978;SDS011;35869;50.990;6.962;2023-02-13T02:46:34;12.77;;;8.30;;
49978;SDS011;35869;50.990;6.962;2023-02-13T02:51:48;9.18;;;6.82;;
49978;SDS011;35869;50.990;6.962;2023-02-13T02:57:02;10.07;;;7.18;;
49978;SDS011;35869;50.990;6.962;2023-02-13T03:02:09;11.63;;;8.75;;
49978;SDS011;35869;50.990;6.962;2023-02-13T03:07:12;10.93;;;8.25;;
49978;SDS011;35869;50.990;6.962;2023-02-13T03:12:18;11.70;;;8.68;;
49978;SDS011;35869;50.990;6.962;2023-02-13T03:17:21;11.23;;;8.90;;
49978;SDS011;35869;50.990;6.962;2023-02-13T03:27:49;12.10;;;8.43;;
49978;SDS011;35869;50.990;6.962;2023-02-13T03:38:09;12.23;;;9.00;;
49978;SDS011;35869;50.990;6.962;2023-02-13T03:43:23;12.10;;;8.80;;
49978;SDS011;35869;50.990;6.962;2023-02-13T03:48:29;12.20;;;8.75;;
49978;SDS011;35869;50.990;6.962;2023-02-13T03:53:32;14.30;;;9.10;;
49978;SDS011;35869;50.990;6.962;2023-02-13T03:58:35;13.07;;;8.65;;
49978;SDS011;35869;50.990;6.962;2023-02-13T04:03:43;12.20;;;8.32;;
49978;SDS011;35869;50.990;6.962;2023-02-13T04:08:55;11.55;;;8.00;;
49978;SDS011;35869;50.990;6.962;2023-02-13T04:13:56;14.50;;;9.23;;
49978;SDS011;35869;50.990;6.962;2023-02-13T04:18:59;13.18;;;9.15;;
49978;SDS011;35869;50.990;6.962;2023-02-13T04:24:00;11.18;;;8.73;;
49978;SDS011;35869;50.990;6.962;2023-02-13T04:29:01;13.27;;;9.03;;
49978;SDS011;35869;50.990;6.962;2023-02-13T04:34:02;13.70;;;9.75;;
49978;SDS011;35869;50.990;6.962;2023-02-13T04:39:02;14.57;;;9.88;;
49978;SDS011;35869;50.990;6.962;2023-02-13T04:44:02;13.17;;;9.17;;
49978;SDS011;35869;50.990;6.962;2023-02-13T04:49:03;13.25;;;10.90;;
49978;SDS011;35869;50.990;6.962;2023-02-13T04:54:03;14.20;;;10.53;;
49978;SDS011;35869;50.990;6.962;2023-02-13T04:59:04;14.43;;;9.87;;
49978;SDS011;35869;50.990;6.962;2023-02-13T05:04:04;15.50;;;9.52;;
49978;SDS011;35869;50.990;6.962;2023-02-13T05:09:04;15.50;;;10.23;;
49978;SDS011;35869;50.990;6.962;2023-02-13T05:14:04;13.90;;;10.23;;
49978;SDS011;35869;50.990;6.962;2023-02-13T05:19:05;13.85;;;10.30;;
49978;SDS011;35869;50.990;6.962;2023-02-13T05:24:05;14.77;;;9.82;;
49978;SDS011;35869;50.990;6.962;2023-02-13T05:29:05;11.05;;;9.13;;
49978;SDS011;35869;50.990;6.962;2023-02-13T05:34:05;14.65;;;9.68;;
49978;SDS011;35869;50.990;6.962;2023-02-13T05:39:06;16.25;;;10.50;;
49978;SDS011;35869;50.990;6.962;2023-02-13T05:44:07;12.73;;;9.95;;
49978;SDS011;35869;50.990;6.962;2023-02-13T05:49:08;12.52;;;9.73;;
49978;SDS011;35869;50.990;6.962;2023-02-13T05:54:09;12.45;;;9.77;;
49978;SDS011;35869;50.990;6.962;2023-02-13T05:59:09;12.35;;;9.10;;
49978;SDS011;35869;50.990;6.962;2023-02-13T06:04:09;14.70;;;10.30;;
49978;SDS011;35869;50.990;6.962;2023-02-13T06:09:10;15.90;;;10.98;;
49978;SDS011;35869;50.990;6.962;2023-02-13T06:14:10;13.40;;;9.00;;
49978;SDS011;35869;50.990;6.962;2023-02-13T06:19:10;14.77;;;11.27;;
49978;SDS011;35869;50.990;6.962;2023-02-13T06:24:11;14.55;;;10.15;;
49978;SDS011;35869;50.990;6.962;2023-02-13T06:29:11;14.07;;;10.32;;
49978;SDS011;35869;50.990;6.962;2023-02-13T06:34:11;14.10;;;10.20;;
49978;SDS011;35869;50.990;6.962;2023-02-13T06:39:11;19.97;;;10.93;;
49978;SDS011;35869;50.990;6.962;2023-02-13T06:44:11;18.48;;;12.27;;
49978;SDS011;35869;50.990;6.962;2023-02-13T06:49:12;15.85;;;10.75;;
49978;SDS011;35869;50.990;6.962;2023-02-13T06:54:12;14.80;;;10.63;;
49978;SDS011;35869;50.990;6.962;2023-02-13T06:59:12;17.00;;;10.43;;
49978;SDS011;35869;50.990;6.962;2023-02-13T07:04:12;15.23;;;10.82;;
49978;SDS011;35869;50.990;6.962;2023-02-13T07:09:13;13.60;;;9.48;;
49978;SDS011;35869;50.990;6.962;2023-02-13T07:14:13;17.95;;;11.73;;
49978;SDS011;35869;50.990;6.962;2023-02-13T07:19:13;14.68;;;10.30;;
49978;SDS011;35869;50.990;6.962;2023-02-13T07:24:14;16.87;;;10.60;;
49978;SDS011;35869;50.990;6.962;2023-02-13T07:29:14;13.63;;;9.93;;
49978;SDS011;35869;50.990;6.962;2023-02-13T07:34:14;15.00;;;10.48;;
49978;SDS011;35869;50.990;6.962;2023-02-13T07:39:14;16.67;;;11.45;;
49978;SDS011;35869;50.990;6.962;2023-02-13T07:44:14;18.42;;;11.57;;
49978;SDS011;35869;50.990;6.962;2023-02-13T07:49:15;18.48;;;11.93;;
49978;SDS011;35869;50.990;6.962;2023-02-13T07:54:15;17.20;;;10.80;;
49978;SDS011;35869;50.990;6.962;2023-02-13T07:59:15;18.38;;;11.52;;
49978;SDS011;35869;50.990;6.962;2023-02-13T08:04:15;17.90;;;12.05;;
49978;SDS011;35869;50.990;6.962;2023-02-13T08:09:19;14.87;;;10.77;;
49978;SDS011;35869;50.990;6.962;2023-02-13T08:14:20;17.75;;;10.85;;
49978;SDS011;35869;50.990;6.962;2023-02-13T08:19:22;15.13;;;11.18;;
49978;SDS011;35869;50.990;6.962;2023-02-13T08:24:22;18.25;;;11.63;;
49978;SDS011;35869;50.990;6.962;2023-02-13T08:29:22;18.00;;;11.77;;
49978;SDS011;35869;50.990;6.962;2023-02-13T08:34:23;14.63;;;9.83;;
49978;SDS011;35869;50.990;6.962;2023-02-13T08:39:23;17.17;;;11.40;;
49978;SDS011;35869;50.990;6.962;2023-02-13T08:44:23;16.45;;;10.95;;
49978;SDS011;35869;50.990;6.962;2023-02-13T08:49:23;14.60;;;9.10;;
49978;SDS011;35869;50.990;6.962;2023-02-13T08:54:24;16.08;;;10.23;;
49978;SDS011;35869;50.990;6.962;2023-02-13T08:59:24;15.23;;;10.43;;
49978;SDS011;35869;50.990;6.962;2023-02-13T09:04:24;16.92;;;10.30;;
49978;SDS011;35869;50.990;6.962;2023-02-13T09:09:25;16.70;;;10.25;;
49978;SDS011;35869;50.990;6.962;2023-02-13T09:14:25;13.30;;;9.40;;
49978;SDS011;35869;50.990;6.962;2023-02-13T09:19:25;13.53;;;9.83;;
49978;SDS011;35869;50.990;6.962;2023-02-13T09:24:25;13.55;;;9.18;;
49978;SDS011;35869;50.990;6.962;2023-02-13T09:29:26;13.63;;;8.20;;
49978;SDS011;35869;50.990;6.962;2023-02-13T09:39:27;12.48;;;8.68;;
49978;SDS011;35869;50.990;6.962;2023-02-13T09:44:34;13.48;;;8.90;;
49978;SDS011;35869;50.990;6.962;2023-02-13T09:49:39;16.90;;;9.60;;
49978;SDS011;35869;50.990;6.962;2023-02-13T09:54:43;11.35;;;8.10;;
49978;SDS011;35869;50.990;6.962;2023-02-13T09:59:57;14.80;;;9.03;;
49978;SDS011;35869;50.990;6.962;2023-02-13T10:05:22;12.23;;;8.27;;
49978;SDS011;35869;50.990;6.962;2023-02-13T10:15:47;11.75;;;7.80;;
49978;SDS011;35869;50.990;6.962;2023-02-13T10:20:53;11.55;;;6.78;;
49978;SDS011;35869;50.990;6.962;2023-02-13T10:26:01;10.00;;;6.97;;
49978;SDS011;35869;50.990;6.962;2023-02-13T10:31:07;10.20;;;6.90;;
49978;SDS011;35869;50.990;6.962;2023-02-13T10:36:27;10.07;;;6.55;;
49978;SDS011;35869;50.990;6.962;2023-02-13T10:51:48;9.98;;;6.22;;
49978;SDS011;35869;50.990;6.962;2023-02-13T10:56:57;11.52;;;6.80;;
49978;SDS011;35869;50.990;6.962;2023-02-13T11:07:26;8.70;;;6.75;;
49978;SDS011;35869;50.990;6.962;2023-02-13T11:12:28;11.70;;;7.03;;
49978;SDS011;35869;50.990;6.962;2023-02-13T11:17:31;12.57;;;7.63;;
49978;SDS011;35869;50.990;6.962;2023-02-13T11:22:38;8.10;;;6.47;;
49978;SDS011;35869;50.990;6.962;2023-02-13T11:27:40;9.07;;;5.57;;
49978;SDS011;35869;50.990;6.962;2023-02-13T11:32:41;8.80;;;5.93;;
49978;SDS011;35869;50.990;6.962;2023-02-13T11:43:28;6.82;;;5.13;;
49978;SDS011;35869;50.990;6.962;2023-02-13T11:48:30;8.10;;;5.63;;
49978;SDS011;35869;50.990;6.962;2023-02-13T11:53:31;9.02;;;5.68;;
49978;SDS011;35869;50.990;6.962;2023-02-13T11:58:37;7.78;;;4.95;;
49978;SDS011;35869;50.990;6.962;2023-02-13T12:03:39;8.02;;;5.55;;
49978;SDS011;35869;50.990;6.962;2023-02-13T12:08:41;8.52;;;5.90;;
49978;SDS011;35869;50.990;6.962;2023-02-13T12:13:45;9.45;;;6.43;;
49978;SDS011;35869;50.990;6.962;2023-02-13T12:18:48;6.97;;;5.07;;
49978;SDS011;35869;50.990;6.962;2023-02-13T12:23:56;6.93;;;5.18;;
49978;SDS011;35869;50.990;6.962;2023-02-13T12:45:42;5.32;;;4.03;;
49978;SDS011;35869;50.990;6.962;2023-02-13T12:56:40;10.30;;;5.15;;
49978;SDS011;35869;50.990;6.962;2023-02-13T13:12:44;6.82;;;5.40;;
49978;SDS011;35869;50.990;6.962;2023-02-13T13:23:23;6.90;;;5.07;;
49978;SDS011;35869;50.990;6.962;2023-02-13T13:28:28;6.18;;;3.75;;
49978;SDS011;35869;50.990;6.962;2023-02-13T13:33:37;5.82;;;3.70;;
49978;SDS011;35869;50.990;6.962;2023-02-13T13:54:24;7.03;;;2.40;;
49978;SDS011;35869;50.990;6.962;2023-02-13T14:09:38;4.07;;;1.92;;
49978;SDS011;35869;50.990;6.962;2023-02-13T14:14:43;3.53;;;2.00;;
49978;SDS011;35869;50.990;6.962;2023-02-13T14:19:45;2.55;;;1.80;;
49978;SDS011;35869;50.990;6.962;2023-02-13T14:24:55;3.65;;;1.60;;
49978;SDS011;35869;50.990;6.962;2023-02-13T14:29:57;2.05;;;1.55;;
49978;SDS011;35869;50.990;6.962;2023-02-13T14:35:01;3.22;;;2.03;;
49978;SDS011;35869;50.990;6.962;2023-02-13T14:40:10;2.92;;;2.20;;
49978;SDS011;35869;50.990;6.962;2023-02-13T14:45:27;3.05;;;1.65;;
49978;SDS011;35869;50.990;6.962;2023-02-13T14:50:34;2.47;;;1.70;;
49978;SDS011;35869;50.990;6.962;2023-02-13T14:55:44;3.35;;;1.65;;
49978;SDS011;35869;50.990;6.962;2023-02-13T15:00:51;2.88;;;2.40;;
49978;SDS011;35869;50.990;6.962;2023-02-13T15:05:56;2.00;;;1.80;;
49978;SDS011;35869;50.990;6.962;2023-02-13T15:11:00;3.35;;;1.83;;
49978;SDS011;35869;50.990;6.962;2023-02-13T15:16:04;2.95;;;1.70;;
49978;SDS011;35869;50.990;6.962;2023-02-13T15:21:18;5.50;;;1.80;;
49978;SDS011;35869;50.990;6.962;2023-02-13T15:26:22;2.22;;;1.35;;
49978;SDS011;35869;50.990;6.962;2023-02-13T15:31:24;2.65;;;1.42;;
49978;SDS011;35869;50.990;6.962;2023-02-13T15:36:25;2.37;;;1.30;;
49978;SDS011;35869;50.990;6.962;2023-02-13T15:41:36;1.35;;;1.08;;
49978;SDS011;35869;50.990;6.962;2023-02-13T15:46:38;3.45;;;1.77;;
49978;SDS011;35869;50.990;6.962;2023-02-13T15:51:39;1.40;;;1.25;;
49978;SDS011;35869;50.990;6.962;2023-02-13T15:56:39;3.97;;;1.90;;
49978;SDS011;35869;50.990;6.962;2023-02-13T16:01:44;3.20;;;1.90;;
49978;SDS011;35869;50.990;6.962;2023-02-13T16:06:45;2.35;;;1.10;;
49978;SDS011;35869;50.990;6.962;2023-02-13T16:11:49;4.30;;;1.30;;
49978;SDS011;35869;50.990;6.962;2023-02-13T16:17:00;2.85;;;1.52;;
49978;SDS011;35869;50.990;6.962;2023-02-13T16:27:27;1.98;;;1.35;;
49978;SDS011;35869;50.990;6.962;2023-02-13T16:32:32;1.53;;;1.10;;
49978;SDS011;35869;50.990;6.962;2023-02-13T16:37:34;1.48;;;1.17;;
49978;SDS011;35869;50.990;6.962;2023-02-13T16:42:34;1.23;;;1.13;;
49978;SDS011;35869;50.990;6.962;2023-02-13T16:47:35;2.67;;;1.30;;
49978;SDS011;35869;50.990;6.962;2023-02-13T16:52:35;2.00;;;1.35;;
49978;SDS011;35869;50.990;6.962;2023-02-13T16:57:35;2.58;;;1.40;;
49978;SDS011;35869;50.990;6.962;2023-02-13T17:02:37;2.30;;;1.30;;
49978;SDS011;35869;50.990;6.962;2023-02-13T17:07:39;1.67;;;1.30;;
49978;SDS011;35869;50.990;6.962;2023-02-13T17:12:40;1.52;;;1.20;;
49978;SDS011;35869;50.990;6.962;2023-02-13T17:17:43;4.82;;;1.40;;
49978;SDS011;35869;50.990;6.962;2023-02-13T17:22:48;1.63;;;1.20;;
49978;SDS011;35869;50.990;6.962;2023-02-13T17:27:51;3.47;;;1.55;;
49978;SDS011;35869;50.990;6.962;2023-02-13T17:33:36;5.80;;;1.90;;
49978;SDS011;35869;50.990;6.962;2023-02-13T17:38:20;4.03;;;2.08;;
49978;SDS011;35869;50.990;6.962;2023-02-13T17:43:20;3.25;;;1.90;;
49978;SDS011;35869;50.990;6.962;2023-02-13T17:48:21;1.83;;;1.65;;
49978;SDS011;35869;50.990;6.962;2023-02-13T17:53:24;3.25;;;2.22;;
49978;SDS011;35869;50.990;6.962;2023-02-13T17:58:26;1.90;;;1.80;;
49978;SDS011;35869;50.990;6.962;2023-02-13T18:03:27;3.47;;;2.00;;
49978;SDS011;35869;50.990;6.962;2023-02-13T18:08:27;2.60;;;2.23;;
49978;SDS011;35869;50.990;6.962;2023-02-13T18:13:27;5.47;;;3.28;;
49978;SDS011;35869;50.990;6.962;2023-02-13T18:18:28;4.15;;;2.80;;
49978;SDS011;35869;50.990;6.962;2023-02-13T18:23:28;6.10;;;2.85;;
49978;SDS011;35869;50.990;6.962;2023-02-13T18:28:28;2.92;;;2.63;;
49978;SDS011;35869;50.990;6.962;2023-02-13T18:33:28;4.07;;;2.88;;
49978;SDS011;35869;50.990;6.962;2023-02-13T18:38:29;6.27;;;3.90;;
49978;SDS011;35869;50.990;6.962;2023-02-13T18:43:29;5.75;;;3.70;;
49978;SDS011;35869;50.990;6.962;2023-02-13T18:48:30;6.25;;;3.38;;
49978;SDS011;35869;50.990;6.962;2023-02-13T18:53:31;6.55;;;3.38;;
49978;SDS011;35869;50.990;6.962;2023-02-13T18:58:31;5.35;;;3.42;;
49978;SDS011;35869;50.990;6.962;2023-02-13T19:03:32;7.22;;;3.63;;
49978;SDS011;35869;50.990;6.962;2023-02-13T19:08:32;6.72;;;4.47;;
49978;SDS011;35869;50.990;6.962;2023-02-13T19:13:32;7.93;;;4.97;;
49978;SDS011;35869;50.990;6.962;2023-02-13T19:18:36;8.27;;;4.67;;
49978;SDS011;35869;50.990;6.962;2023-02-13T19:23:38;11.00;;;5.88;;
49978;SDS011;35869;50.990;6.962;2023-02-13T19:33:39;7.68;;;4.90;;
49978;SDS011;35869;50.990;6.962;2023-02-13T19:38:41;7.05;;;5.25;;
49978;SDS011;35869;50.990;6.962;2023-02-13T19:43:42;11.02;;;6.93;;
49978;SDS011;35869;50.990;6.962;2023-02-13T19:48:45;9.90;;;7.43;;
49978;SDS011;35869;50.990;6.962;2023-02-13T19:53:45;7.63;;;5.10;;
49978;SDS011;35869;50.990;6.962;2023-02-13T19:58:46;7.47;;;5.28;;
49978;SDS011;35869;50.990;6.962;2023-02-13T20:03:46;6.35;;;4.22;;
49978;SDS011;35869;50.990;6.962;2023-02-13T20:08:47;5.50;;;4.05;;
49978;SDS011;35869;50.990;6.962;2023-02-13T20:13:51;4.57;;;3.67;;
49978;SDS011;35869;50.990;6.962;2023-02-13T20:18:52;5.82;;;4.05;;
49978;SDS011;35869;50.990;6.962;2023-02-13T20:23:52;5.97;;;4.20;;
49978;SDS011;35869;50.990;6.962;2023-02-13T20:28:54;7.40;;;4.50;;
49978;SDS011;35869;50.990;6.962;2023-02-13T20:33:55;5.57;;;4.10;;
49978;SDS011;35869;50.990;6.962;2023-02-13T20:38:58;4.80;;;4.05;;
49978;SDS011;35869;50.990;6.962;2023-02-13T20:44:00;5.50;;;3.75;;
49978;SDS011;35869;50.990;6.962;2023-02-13T20:49:03;7.30;;;4.72;;
49978;SDS011;35869;50.990;6.962;2023-02-13T20:54:03;7.72;;;4.65;;
49978;SDS011;35869;50.990;6.962;2023-02-13T20:59:04;6.00;;;4.53;;
49978;SDS011;35869;50.990;6.962;2023-02-13T21:04:05;6.38;;;4.40;;
49978;SDS011;35869;50.990;6.962;2023-02-13T21:09:07;6.75;;;4.60;;
49978;SDS011;35869;50.990;6.962;2023-02-13T21:14:09;7.90;;;4.97;;
49978;SDS011;35869;50.990;6.962;2023-02-13T21:19:14;6.18;;;4.50;;
49978;SDS011;35869;50.990;6.962;2023-02-13T21:24:18;5.68;;;4.57;;
49978;SDS011;35869;50.990;6.962;2023-02-13T21:29:20;7.38;;;4.57;;
49978;SDS011;35869;50.990;6.962;2023-02-13T21:34:20;7.05;;;4.47;;
49978;SDS011;35869;50.990;6.962;2023-02-13T21:44:22;5.90;;;4.82;;
49978;SDS011;35869;50.990;6.962;2023-02-13T21:49:22;7.77;;;4.60;;
49978;SDS011;35869;50.990;6.962;2023-02-13T21:54:22;5.97;;;4.72;;
49978;SDS011;35869;50.990;6.962;2023-02-13T21:59:23;6.50;;;4.45;;
49978;SDS011;35869;50.990;6.962;2023-02-13T22:04:23;5.65;;;4.38;;
49978;SDS011;35869;50.990;6.962;2023-02-13T22:09:23;6.15;;;4.75;;
49978;SDS011;35869;50.990;6.962;2023-02-13T22:14:23;7.22;;;5.25;;
49978;SDS011;35869;50.990;6.962;2023-02-13T22:19:24;5.03;;;3.95;;
49978;SDS011;35869;50.990;6.962;2023-02-13T22:24:24;6.80;;;5.45;;
49978;SDS011;35869;50.990;6.962;2023-02-13T22:29:24;7.88;;;5.10;;
49978;SDS011;35869;50.990;6.962;2023-02-13T22:34:24;6.57;;;5.20;;
49978;SDS011;35869;50.990;6.962;2023-02-13T22:39:24;10.02;;;5.57;;
49978;SDS011;35869;50.990;6.962;2023-02-13T22:44:25;6.80;;;5.45;;
49978;SDS011;35869;50.990;6.962;2023-02-13T22:54:26;7.43;;;4.90;;
49978;SDS011;35869;50.990;6.962;2023-02-13T22:59:26;6.65;;;4.88;;
49978;SDS011;35869;50.990;6.962;2023-02-13T23:04:27;8.40;;;4.50;;
49978;SDS011;35869;50.990;6.962;2023-02-13T23:09:27;6.53;;;5.33;;
49978;SDS011;35869;50.990;6.962;2023-02-13T23:14:27;6.85;;;5.13;;
49978;SDS011;35869;50.990;6.962;2023-02-13T23:19:28;8.75;;;5.82;;
49978;SDS011;35869;50.990;6.962;2023-02-13T23:24:28;7.93;;;5.65;;
49978;SDS011;35869;50.990;6.962;2023-02-13T23:29:29;10.67;;;5.37;;
49978;SDS011;35869;50.990;6.962;2023-02-13T23:34:29;6.57;;;5.00;;
49978;SDS011;35869;50.990;6.962;2023-02-13T23:39:30;8.95;;;6.20;;
49978;SDS011;35869;50.990;6.962;2023-02-13T23:44:30;7.30;;;5.43;;
49978;SDS011;35869;50.990;6.962;2023-02-13T23:49:30;8.55;;;5.90;;
49978;SDS011;35869;50.990;6.962;2023-02-13T23:54:30;8.57;;;6.13;;
49978;SDS011;35869;50.990;6.962;2023-02-13T23:59:31;8.80;;;5.33;;
